Terminal Aerodrome Forecast
Issued by NWS

Home | Current Version | Previous Version | Text Only | Print | Product List | Glossary On
Versions: 1 2 3 4 5 6 7 8 9 10 11 12 13 14 15 16 17 18 19 20 21 22 23 24 25 26 27 28 29
000
FTUS45 KGJT 041741
TAFCNY
TAF
KCNY 041741Z 0418/0518 12010KT P6SM -SHRA BKN090 BKN150
     FM041830 22012G20KT P6SM VCSH SCT090 BKN150
     FM050200 15008KT P6SM VCSH BKN090 OVC150
     FM050600 15012KT P6SM SCT100 BKN150
     FM051200 18008KT P6SM SCT100 BKN150=

USA.gov is the U.S. government's official web portal to all federal, state and local government web resources and services.